Mr. Cass — WDB5593 — position and weather

sailwx.info

Track history (hours):
 
Tides and Currents Weather Stations Pressure Air Temp Water Temp Dewpoint Dewpoint Depression Visibility Wind Speed Wind Dir Waves Ship Positions

Mr. Cass

Owner: Cass Marine Towing LLC, Marrero, LA. More information available from US FCC via Universal Licensing System and Coast Guard Vessel Documentation Center.

Last reported at 2016-Dec-07 21:34 UTC. Time now 2016-Dec-07 22:20 UTC.
Position N 29°57' W 090°09'.

Length 17 m; draft 3.5 m.

Type: Towing. MMSI: 366911310.

Date/timePositionNaut miles runAvg speedWind from/ knotsBaromVisibWave heightAir tempDewpointWater temp
2016-Dec-07 21:34N 29°57' W 090°09'3 2.3
2016-Dec-07 20:20N 29°54' W 090°07'0 0.0
2016-Dec-07 16:23N 29°54' W 090°07'3 3.2
2016-Dec-07 15:19N 29°55' W 090°04'0 0.0
2016-Dec-07 14:33N 29°55' W 090°04'4 0.3
2016-Dec-07 03:30N 29°55' W 090°08'3 2.9
2016-Dec-07 02:30N 29°56' W 090°11'3 2.8
2016-Dec-07 01:26N 29°57' W 090°14'4 4.4
2016-Dec-07 00:33N 29°57' W 090°09'3 3.1
2016-Dec-06 23:32N 29°54' W 090°07'0 0.0
2016-Dec-06 22:24N 29°54' W 090°07'0 0.0
2016-Dec-06 14:28N 29°54' W 090°07'0 0.0
2016-Dec-06 13:24N 29°54' W 090°07'0 0.0
2016-Dec-06 12:33N 29°54' W 090°07'0 0.0
2016-Dec-06 11:33N 29°54' W 090°07'0 0.0
2016-Dec-06 10:33N 29°54' W 090°07'0 0.0
2016-Dec-06 09:33N 29°54' W 090°07'0 0.0
2016-Dec-06 08:34N 29°54' W 090°07'0 0.0
2016-Dec-06 07:33N 29°54' W 090°07'0 0.0
2016-Dec-06 06:33N 29°54' W 090°07'0 0.0
2016-Dec-06 05:33N 29°54' W 090°07'0 0.0
2016-Dec-06 04:33N 29°54' W 090°07'0 0.0
2016-Dec-06 03:33N 29°54' W 090°07'0 0.0
2016-Dec-06 02:06N 29°54' W 090°07'0 0.0
2016-Dec-06 01:32N 29°54' W 090°07'0 0.0
2016-Dec-04 11:20N 29°54' W 090°07'0 0.0
2016-Dec-04 10:29N 29°54' W 090°07'0 0.0
2016-Dec-03 16:22N 29°54' W 090°07'0 0.0
2016-Dec-03 12:06N 29°54' W 090°07'0 0.0
2016-Dec-03 11:33N 29°54' W 090°07'0 0.0
2016-Dec-03 10:33N 29°54' W 090°07'0 0.0
2016-Dec-03 09:33N 29°54' W 090°07'1 0.0
2016-Dec-01 11:05N 29°55' W 090°06'3 5.8
2016-Dec-01 10:33N 29°57' W 090°08'5 5.4
2016-Dec-01 09:34N 29°58' W 090°14'2 0.1
2016-Nov-30 20:31N 29°57' W 090°13'4 4.2
2016-Nov-30 19:33N 29°56' W 090°08'  
Track history (hours):
 
Tides and Currents Weather Stations Pressure Air Temp Water Temp Dewpoint Dewpoint Depression Visibility Wind Speed Wind Dir Waves Ship Positions

Mr. Cass

Owner: Cass Marine Towing LLC, Marrero, LA. More information available from US FCC via Universal Licensing System and Coast Guard Vessel Documentation Center.

Last reported at 2016-Dec-07 21:34 UTC. Time now 2016-Dec-07 22:20 UTC.
Position N 29°57' W 090°09'.

Length 17 m; draft 3.5 m.

Type: Towing. MMSI: 366911310.

Date/timePositionNaut miles runAvg speedWind from/ knotsBaromVisibWave heightAir tempDewpointWater temp
2016-Dec-07 21:34N 29°57' W 090°09'3 2.3
2016-Dec-07 20:20N 29°54' W 090°07'0 0.0
2016-Dec-07 16:23N 29°54' W 090°07'3 3.2
2016-Dec-07 15:19N 29°55' W 090°04'0 0.0
2016-Dec-07 14:33N 29°55' W 090°04'4 0.3
2016-Dec-07 03:30N 29°55' W 090°08'3 2.9
2016-Dec-07 02:30N 29°56' W 090°11'3 2.8
2016-Dec-07 01:26N 29°57' W 090°14'4 4.4
2016-Dec-07 00:33N 29°57' W 090°09'3 3.1
2016-Dec-06 23:32N 29°54' W 090°07'0 0.0
2016-Dec-06 22:24N 29°54' W 090°07'0 0.0
2016-Dec-06 14:28N 29°54' W 090°07'0 0.0
2016-Dec-06 13:24N 29°54' W 090°07'0 0.0
2016-Dec-06 12:33N 29°54' W 090°07'0 0.0
2016-Dec-06 11:33N 29°54' W 090°07'0 0.0
2016-Dec-06 10:33N 29°54' W 090°07'0 0.0
2016-Dec-06 09:33N 29°54' W 090°07'0 0.0
2016-Dec-06 08:34N 29°54' W 090°07'0 0.0
2016-Dec-06 07:33N 29°54' W 090°07'0 0.0
2016-Dec-06 06:33N 29°54' W 090°07'0 0.0
2016-Dec-06 05:33N 29°54' W 090°07'0 0.0
2016-Dec-06 04:33N 29°54' W 090°07'0 0.0
2016-Dec-06 03:33N 29°54' W 090°07'0 0.0
2016-Dec-06 02:06N 29°54' W 090°07'0 0.0
2016-Dec-06 01:32N 29°54' W 090°07'0 0.0
2016-Dec-04 11:20N 29°54' W 090°07'0 0.0
2016-Dec-04 10:29N 29°54' W 090°07'0 0.0
2016-Dec-03 16:22N 29°54' W 090°07'0 0.0
2016-Dec-03 12:06N 29°54' W 090°07'0 0.0
2016-Dec-03 11:33N 29°54' W 090°07'0 0.0
2016-Dec-03 10:33N 29°54' W 090°07'0 0.0
2016-Dec-03 09:33N 29°54' W 090°07'1 0.0
2016-Dec-01 11:05N 29°55' W 090°06'3 5.8
2016-Dec-01 10:33N 29°57' W 090°08'5 5.4
2016-Dec-01 09:34N 29°58' W 090°14'2 0.1
2016-Nov-30 20:31N 29°57' W 090°13'4 4.2
2016-Nov-30 19:33N 29°56' W 090°08'  

Dump ship's entire track history